Time;durP1;ratioP1;P1;durP2;ratioP2;P2;SDS_P1;SDS_P2;PMS_P1;PMS_P2;Temp;Humidity;BMP_temperature;BMP_pressure;BME280_temperature;BME280_humidity;BME280_pressure;Samples;Min_cycle;Max_cycle;Signal;HPM_P1;HPM_P2
2022/01/24 00:02:21;;;;;;;18.55;12.10;;;;;;;5.40;69.61;103601.22;5007997;28;20022;-53
2022/01/24 00:04:48;;;;;;;18.75;12.55;;;;;;;5.38;69.94;103600.25;5007991;28;20057;-54
2022/01/24 00:07:18;;;;;;;16.45;10.40;;;;;;;5.39;69.38;103599.44;5007129;28;20034;-53
2022/01/24 00:09:43;;;;;;;16.10;10.93;;;;;;;5.43;69.41;103612.66;5007434;28;20029;-53
2022/01/24 00:13:33;;;;;;;18.00;12.00;;;;;;;5.49;68.94;103600.63;5005947;28;20137;-55
2022/01/24 00:18:13;;;;;;;18.55;10.75;;;;;;;5.46;69.39;103601.41;4992892;28;20433;-54
2022/01/24 00:28:50;;;;;;;17.65;11.15;;;;;;;5.38;69.60;103589.78;5026822;28;20103;-55
2022/01/24 00:31:15;;;;;;;15.52;11.20;;;;;;;5.37;69.38;103595.88;5007158;28;20456;-57
2022/01/24 00:33:40;;;;;;;20.00;12.20;;;;;;;5.37;69.31;103591.53;5006817;28;20109;-53
2022/01/24 00:36:06;;;;;;;19.15;12.40;;;;;;;5.36;69.29;103589.75;5006104;28;20104;-57
2022/01/24 00:38:32;;;;;;;21.33;13.23;;;;;;;5.36;69.50;103589.75;5007128;28;20339;-55
2022/01/24 00:40:58;;;;;;;18.23;11.20;;;;;;;5.42;69.63;103581.22;5007965;28;20172;-54
2022/01/24 00:43:44;;;;;;;19.27;13.05;;;;;;;5.39;69.05;103586.38;5020157;28;20073;-57
2022/01/24 00:46:19;;;;;;;16.42;10.35;;;;;;;5.39;69.30;103587.22;5026732;28;20033;-52
2022/01/24 00:49:19;;;;;;;18.75;12.63;;;;;;;5.34;69.38;103583.59;5026146;28;20060;-55
2022/01/24 00:54:44;;;;;;;18.35;12.50;;;;;;;5.28;70.24;103586.91;5018966;28;20156;-54
2022/01/24 00:57:10;;;;;;;17.40;11.18;;;;;;;5.28;70.23;103579.06;5006484;28;20034;-55
2022/01/24 00:59:36;;;;;;;23.55;13.02;;;;;;;5.27;70.15;103579.88;5006470;28;20038;-57
2022/01/24 01:02:02;;;;;;;21.48;12.50;;;;;;;5.28;70.25;103579.06;5007345;28;20034;-53
2022/01/24 01:04:37;;;;;;;20.88;11.50;;;;;;;5.28;70.47;103575.53;5007594;28;20379;-54
2022/01/24 01:07:06;;;;;;;23.95;12.52;;;;;;;5.27;70.04;103579.88;5006637;28;20034;-55
2022/01/24 01:20:32;;;;;;;20.65;12.40;;;;;;;5.27;71.13;103579.88;5005219;28;20052;-54
2022/01/24 01:22:57;;;;;;;20.60;12.45;;;;;;;5.26;70.85;103585.94;5006197;28;20113;-54
2022/01/24 01:25:23;;;;;;;20.73;12.35;;;;;;;5.24;71.31;103585.00;5005247;28;20140;-55
2022/01/24 01:27:51;;;;;;;19.27;11.93;;;;;;;5.25;70.52;103584.19;5005622;28;20030;-57
2022/01/24 01:30:21;;;;;;;16.15;10.80;;;;;;;5.27;70.25;103590.34;5006352;28;20022;-57
2022/01/24 01:35:41;;;;;;;23.67;13.53;;;;;;;5.28;69.44;103584.28;5006197;28;20114;-56
2022/01/24 01:57:14;;;;;;;18.05;11.30;;;;;;;5.26;71.31;103575.50;5002095;28;20129;-56
2022/01/24 01:59:39;;;;;;;22.10;13.80;;;;;;;5.25;71.19;103572.84;5005688;28;20030;-54
2022/01/24 02:02:04;;;;;;;18.88;12.60;;;;;;;5.25;71.45;103578.97;5005547;28;20473;-57
2022/01/24 02:04:30;;;;;;;22.20;13.77;;;;;;;5.26;71.74;103572.88;5004767;28;20042;-55
2022/01/24 02:06:55;;;;;;;25.30;15.52;;;;;;;5.26;72.35;103575.50;5005315;28;20053;-55
2022/01/24 02:09:28;;;;;;;23.88;13.73;;;;;;;5.27;72.22;103573.78;5041433;23;20049;-53
2022/01/24 02:11:53;;;;;;;27.83;15.57;;;;;;;5.26;72.76;103582.44;5041892;28;20029;-56
2022/01/24 02:14:21;;;;;;;29.92;15.68;;;;;;;5.26;72.72;103575.50;5038774;28;20036;-57
2022/01/24 02:16:55;;;;;;;30.02;17.40;;;;;;;5.25;72.60;103570.22;5038645;28;20029;-55
2022/01/24 02:19:35;;;;;;;27.65;16.17;;;;;;;5.25;73.01;103570.22;5035508;28;20034;-54
2022/01/24 02:24:31;;;;;;;30.67;18.05;;;;;;;5.27;73.37;103566.81;5026537;28;20038;-56
2022/01/24 02:26:58;;;;;;;31.17;17.05;;;;;;;5.26;73.77;103559.81;5025030;28;20487;-56
2022/01/24 02:29:43;;;;;;;29.15;16.35;;;;;;;5.27;74.21;103558.09;5041998;28;20029;-56
2022/01/24 02:32:09;;;;;;;31.83;18.20;;;;;;;5.27;74.68;103563.31;5044642;28;20552;-56
2022/01/24 02:34:38;;;;;;;36.47;19.25;;;;;;;5.26;75.20;103556.28;5025198;28;20048;-52
2022/01/24 02:37:07;;;;;;;37.13;20.73;;;;;;;5.22;75.37;103555.31;5042994;28;20043;-56
2022/01/24 02:39:45;;;;;;;39.78;22.38;;;;;;;5.18;75.95;103549.09;5042982;28;20033;-56
2022/01/24 02:53:02;;;;;;;53.47;26.98;;;;;;;5.15;77.62;103546.38;5048726;28;20033;-54
2022/01/24 02:55:28;;;;;;;46.17;24.77;;;;;;;5.13;78.29;103548.06;5047611;28;20021;-54
2022/01/24 02:57:53;;;;;;;46.80;25.15;;;;;;;5.13;78.20;103553.31;5029749;28;20036;-55
2022/01/24 03:00:18;;;;;;;46.22;25.55;;;;;;;5.14;78.35;103542.00;5048484;28;20120;-55
2022/01/24 03:02:44;;;;;;;41.00;21.45;;;;;;;5.16;78.17;103549.91;5048100;28;20033;-54
2022/01/24 03:05:09;;;;;;;54.85;27.83;;;;;;;5.17;77.98;103551.66;5028873;28;20082;-52
2022/01/24 03:07:34;;;;;;;53.47;27.55;;;;;;;5.15;78.21;103542.91;5049120;28;20079;-55
2022/01/24 03:10:08;;;;;;;51.83;26.95;;;;;;;5.09;78.55;103542.69;5047488;28;20029;-55
2022/01/24 03:12:45;;;;;;;52.35;26.88;;;;;;;5.09;78.75;103540.09;5047925;28;20025;-56
2022/01/24 03:15:11;;;;;;;48.20;24.30;;;;;;;5.08;78.58;103533.09;5046983;28;20033;-56
2022/01/24 03:17:37;;;;;;;51.28;26.95;;;;;;;5.04;78.95;103530.38;5047809;28;20029;-57
2022/01/24 03:20:04;;;;;;;53.72;27.17;;;;;;;5.02;79.38;103531.13;5044372;28;20495;-53
2022/01/24 03:22:29;;;;;;;59.20;29.60;;;;;;;5.01;79.10;103534.59;5033707;28;20040;-55
2022/01/24 03:24:54;;;;;;;48.47;24.17;;;;;;;5.02;79.27;103520.69;5048683;28;20103;-55
2022/01/24 03:27:20;;;;;;;51.28;26.40;;;;;;;5.04;79.08;103524.25;5048275;28;20053;-55
2022/01/24 03:29:45;;;;;;;60.17;30.33;;;;;;;5.01;79.03;103518.91;5067620;28;20415;-56
2022/01/24 03:32:10;;;;;;;56.10;29.25;;;;;;;5.00;79.04;103527.59;5063043;28;20487;-55
2022/01/24 03:34:36;;;;;;;54.92;27.58;;;;;;;4.98;79.05;103526.66;5030658;28;20033;-55
2022/01/24 03:37:01;;;;;;;45.67;24.00;;;;;;;4.99;78.81;103523.19;5040358;28;20435;-55
2022/01/24 03:39:26;;;;;;;54.55;26.10;;;;;;;5.00;78.64;103517.16;5037901;28;20090;-55
2022/01/24 03:41:52;;;;;;;46.97;24.42;;;;;;;5.03;78.35;103518.13;5037547;28;20455;-54
2022/01/24 03:44:18;;;;;;;55.42;29.40;;;;;;;5.02;78.68;103521.56;5038471;28;20029;-53
2022/01/24 03:46:59;;;;;;;60.83;31.67;;;;;;;5.03;78.65;103520.72;5027355;28;20029;-55
2022/01/24 03:49:48;;;;;;;50.63;26.23;;;;;;;5.02;78.96;103520.69;5027390;28;20026;-55
2022/01/24 03:52:14;;;;;;;58.05;29.58;;;;;;;4.99;78.48;103521.47;5035149;28;20033;-52
2022/01/24 03:54:43;;;;;;;46.65;23.42;;;;;;;5.01;78.15;103519.81;5047984;28;20514;-54
2022/01/24 03:57:09;;;;;;;55.67;29.63;;;;;;;5.00;78.06;103522.38;5042504;28;20476;-55
2022/01/24 03:59:34;;;;;;;52.35;27.83;;;;;;;5.00;78.40;103527.59;5040901;28;20370;-55
2022/01/24 04:02:00;;;;;;;55.53;28.25;;;;;;;5.01;78.21;103529.38;5029985;28;20112;-54
2022/01/24 04:04:26;;;;;;;58.92;29.70;;;;;;;5.01;78.39;103530.25;5044712;28;20344;-55
2022/01/24 04:06:52;;;;;;;61.17;30.52;;;;;;;5.00;78.79;103525.84;5067366;28;20072;-54
2022/01/24 04:09:17;;;;;;;58.08;30.90;;;;;;;5.01;78.72;103526.75;5066312;28;20053;-56
2022/01/24 04:11:42;;;;;;;60.60;32.22;;;;;;;4.99;78.94;103529.31;5066428;28;20421;-53
2022/01/24 04:17:20;;;;;;;57.13;29.90;;;;;;;5.01;79.04;103521.53;5042267;28;20103;-56
2022/01/24 04:22:34;;;;;;;55.45;30.10;;;;;;;5.04;79.01;103534.69;5035456;28;20041;-55
2022/01/24 04:25:02;;;;;;;60.65;31.15;;;;;;;5.02;79.27;103526.81;5027272;28;20025;-54
2022/01/24 04:27:28;;;;;;;57.75;29.20;;;;;;;4.99;79.51;103531.94;5046285;28;20402;-55
2022/01/24 04:29:53;;;;;;;59.92;31.17;;;;;;;4.96;79.28;103531.81;5046680;28;20021;-54
2022/01/24 04:32:19;;;;;;;58.20;30.15;;;;;;;4.93;79.59;103524.78;5042757;28;20028;-54
2022/01/24 04:34:45;;;;;;;65.15;32.08;;;;;;;4.92;79.48;103530.84;5025347;28;20113;-56
2022/01/24 04:37:10;;;;;;;62.90;32.05;;;;;;;4.96;79.30;103537.06;5030053;28;20100;-54
2022/01/24 04:39:35;;;;;;;52.95;27.83;;;;;;;4.93;79.38;103531.72;5047766;28;20456;-54
2022/01/24 04:42:09;;;;;;;57.13;30.42;;;;;;;4.93;79.14;103532.63;5040180;28;20112;-55
2022/01/24 04:47:26;;;;;;;52.28;27.73;;;;;;;4.95;78.25;103516.09;5061587;28;20106;-56
2022/01/24 04:53:02;;;;;;;47.05;24.05;;;;;;;4.94;77.65;103523.06;5066696;28;20436;-56
2022/01/24 04:55:27;;;;;;;50.90;26.23;;;;;;;4.92;77.65;103516.88;5031966;28;20037;-56
2022/01/24 04:57:52;;;;;;;50.80;28.20;;;;;;;4.93;77.22;103521.25;5044874;28;20077;-57
2022/01/24 05:00:18;;;;;;;52.08;27.00;;;;;;;4.93;76.47;103521.25;5045967;28;20170;-57
2022/01/24 05:02:43;;;;;;;40.20;23.73;;;;;;;4.90;72.17;103518.56;5018804;28;20032;-55
2022/01/24 05:05:13;;;;;;;37.92;22.30;;;;;;;4.89;72.04;103516.78;5046715;28;20032;-56
2022/01/24 05:07:38;;;;;;;33.80;19.70;;;;;;;4.92;71.67;103516.88;5028722;28;20071;-53
2022/01/24 05:10:17;;;;;;;37.85;20.65;;;;;;;4.97;71.52;103512.69;5047872;28;20110;-55
2022/01/24 05:23:36;;;;;;;33.33;20.35;;;;;;;4.87;68.80;103521.97;5042333;28;20040;-56
2022/01/24 05:26:04;;;;;;;37.58;21.45;;;;;;;4.86;68.30;103508.84;5042953;28;20539;-56
2022/01/24 05:28:30;;;;;;;31.67;18.90;;;;;;;4.92;67.69;103509.06;5046475;28;20451;-57
2022/01/24 05:30:55;;;;;;;34.30;20.30;;;;;;;4.93;67.18;103506.50;5039564;28;20036;-54
2022/01/24 05:33:21;;;;;;;30.65;18.50;;;;;;;4.97;67.00;103507.47;5045980;28;20029;-54
2022/01/24 05:35:46;;;;;;;36.53;22.05;;;;;;;4.97;67.24;103510.06;5046382;28;20402;-51
2022/01/24 05:38:11;;;;;;;47.03;26.92;;;;;;;4.96;68.81;103516.16;5046152;28;20391;-56
2022/01/24 05:40:38;;;;;;;43.55;24.92;;;;;;;4.94;69.08;103517.84;5045760;28;20337;-55
2022/01/24 05:43:04;;;;;;;50.75;26.73;;;;;;;4.95;69.70;103513.47;5045855;28;20036;-56
2022/01/24 05:45:29;;;;;;;60.20;30.20;;;;;;;4.95;70.24;103513.47;5044219;28;20025;-57
2022/01/24 05:47:55;;;;;;;58.63;32.38;;;;;;;4.94;70.93;103517.84;5045078;28;20064;-54
2022/01/24 05:50:20;;;;;;;56.42;31.67;;;;;;;4.92;71.44;103524.72;5046165;28;20025;-53
2022/01/24 05:52:45;;;;;;;52.40;27.98;;;;;;;4.91;71.88;103522.97;5045822;28;20021;-54
2022/01/24 05:55:11;;;;;;;56.42;30.50;;;;;;;4.88;72.24;103510.66;5050157;28;20427;-57
2022/01/24 05:57:36;;;;;;;59.88;30.70;;;;;;;4.91;72.13;103512.50;5045324;28;20462;-53
2022/01/24 06:00:05;;;;;;;62.95;34.95;;;;;;;4.84;71.75;103520.97;5038565;28;20490;-55
2022/01/24 06:02:30;;;;;;;70.80;35.88;;;;;;;4.83;71.81;103522.69;5023455;28;20332;-54
2022/01/24 06:04:55;;;;;;;67.70;36.15;;;;;;;4.72;71.95;103522.31;5024423;28;20034;-54
2022/01/24 06:07:21;;;;;;;61.92;33.15;;;;;;;4.75;71.32;103522.44;5025437;28;20391;-55
2022/01/24 06:09:46;;;;;;;51.25;27.98;;;;;;;4.83;71.29;103532.25;5024655;28;20065;-54
2022/01/24 06:12:12;;;;;;;56.65;30.17;;;;;;;4.84;71.26;103534.91;5028219;28;20090;-54
2022/01/24 06:14:37;;;;;;;62.83;33.45;;;;;;;4.86;71.65;103529.75;5048980;28;20089;-54
2022/01/24 06:17:03;;;;;;;65.57;33.95;;;;;;;4.76;72.16;103525.94;5049295;28;20108;-53
2022/01/24 06:19:28;;;;;;;58.10;29.75;;;;;;;4.76;72.04;103529.41;5049752;28;20102;-56
2022/01/24 06:21:54;;;;;;;63.20;34.90;;;;;;;4.70;72.44;103537.06;5050252;28;20131;-55
2022/01/24 06:24:19;;;;;;;63.55;33.85;;;;;;;4.74;72.22;103532.81;5043741;28;20029;-55
2022/01/24 06:26:44;;;;;;;65.53;34.85;;;;;;;4.69;72.59;103540.50;5035517;28;20028;-56
2022/01/24 06:29:11;;;;;;;64.63;33.10;;;;;;;4.73;73.00;103537.16;5047365;28;20493;-52
2022/01/24 06:31:36;;;;;;;64.70;34.17;;;;;;;4.78;72.33;103538.22;5040739;28;20029;-58
2022/01/24 06:34:02;;;;;;;64.32;33.63;;;;;;;4.85;71.94;103541.91;5026090;28;20055;-56
2022/01/24 06:36:27;;;;;;;53.40;28.45;;;;;;;4.90;71.72;103535.13;5047702;28;20033;-56
2022/01/24 06:38:52;;;;;;;59.38;31.02;;;;;;;4.88;71.40;103531.56;5037458;28;20108;-58
2022/01/24 06:41:23;;;;;;;66.20;36.30;;;;;;;4.79;71.28;103531.28;5018071;28;20018;-58
2022/01/24 06:43:48;;;;;;;58.83;31.45;;;;;;;4.80;71.51;103540.88;5037232;28;20017;-57
2022/01/24 06:46:13;;;;;;;62.60;34.38;;;;;;;4.82;71.49;103536.59;5040645;28;20033;-57
2022/01/24 06:48:39;;;;;;;57.47;31.08;;;;;;;4.89;71.49;103535.06;5042662;28;20048;-55
2022/01/24 06:51:10;;;;;;;59.60;33.42;;;;;;;4.85;71.42;103535.81;5039833;28;20087;-56
2022/01/24 06:53:38;;;;;;;70.50;35.20;;;;;;;4.82;71.20;103533.09;5038164;28;20147;-57
2022/01/24 06:56:07;;;;;;;66.18;36.50;;;;;;;4.85;71.14;103538.44;5037620;28;20029;-57
2022/01/24 06:58:34;;;;;;;61.08;34.03;;;;;;;4.91;71.04;103549.97;5042338;28;20059;-58
2022/01/24 07:00:59;;;;;;;68.03;36.28;;;;;;;4.91;71.03;103539.50;5048087;28;20036;-54
2022/01/24 07:03:24;;;;;;;62.70;34.80;;;;;;;4.71;71.48;103538.84;5048846;28;20044;-56
2022/01/24 07:05:50;;;;;;;58.45;31.52;;;;;;;4.65;71.70;103542.13;5047483;28;20032;-56
2022/01/24 07:08:15;;;;;;;65.18;34.55;;;;;;;4.62;71.50;103543.75;5038907;28;20629;-56
2022/01/24 07:10:40;;;;;;;61.85;31.95;;;;;;;4.65;71.32;103547.38;5036069;28;20463;-57
2022/01/24 07:13:06;;;;;;;59.42;31.85;;;;;;;4.63;71.43;103553.34;5048065;28;20059;-64
2022/01/24 07:15:35;;;;;;;65.45;34.70;;;;;;;4.60;71.45;103558.50;5044802;28;20060;-55
2022/01/24 07:20:35;;;;;;;59.33;30.80;;;;;;;4.61;69.82;103560.25;5034233;28;20075;-61
2022/01/24 07:23:01;;;;;;;55.88;30.85;;;;;;;4.66;69.94;103563.91;5038845;28;20094;-58
2022/01/24 07:25:26;;;;;;;67.45;35.97;;;;;;;4.58;68.98;103560.16;5049162;28;20104;-59
2022/01/24 07:27:51;;;;;;;56.97;32.80;;;;;;;4.58;68.70;103560.16;5040925;28;20219;-57
2022/01/24 07:30:17;;;;;;;54.35;30.02;;;;;;;4.58;68.23;103571.50;5041899;28;20099;-56
2022/01/24 07:32:42;;;;;;;49.67;29.60;;;;;;;4.61;68.07;103571.56;5038776;28;20025;-58
2022/01/24 07:35:08;;;;;;;59.78;31.80;;;;;;;4.61;68.41;103571.56;5048831;28;20524;-57
2022/01/24 07:37:33;;;;;;;51.35;28.77;;;;;;;4.63;67.93;103576.84;5049829;28;20099;-55
2022/01/24 07:39:59;;;;;;;53.08;30.38;;;;;;;4.59;67.36;103578.47;5050402;28;20032;-57
2022/01/24 07:42:52;;;;;;;45.83;26.73;;;;;;;4.58;67.43;103576.72;5049939;28;20037;-62
2022/01/24 07:45:16;;;;;;;47.63;27.60;;;;;;;4.49;67.06;103586.81;5049347;28;20029;-56
2022/01/24 07:47:41;;;;;;;39.65;22.10;;;;;;;4.62;66.83;103585.53;5041037;28;20037;-57
2022/01/24 07:50:08;;;;;;;47.55;25.67;;;;;;;4.63;66.99;103584.69;5049623;28;20033;-57
2022/01/24 07:52:35;;;;;;;50.17;27.15;;;;;;;4.66;66.97;103579.56;5046676;28;20028;-57
2022/01/24 07:55:00;;;;;;;53.55;28.67;;;;;;;4.71;67.17;103582.34;5039985;28;20534;-54
2022/01/24 07:57:26;;;;;;;51.80;27.13;;;;;;;4.73;67.67;103585.91;5016510;28;20139;-57
2022/01/24 07:59:51;;;;;;;62.10;32.03;;;;;;;4.62;67.73;103581.22;5048820;28;20120;-55
2022/01/24 08:02:16;;;;;;;57.00;29.92;;;;;;;4.53;68.00;103588.69;5048769;28;20053;-57
2022/01/24 08:04:42;;;;;;;46.92;26.60;;;;;;;4.57;68.10;103582.75;5047849;28;20056;-59
2022/01/24 08:07:07;;;;;;;51.85;29.38;;;;;;;4.58;67.76;103584.56;5045383;28;20067;-58
2022/01/24 08:09:32;;;;;;;53.78;30.40;;;;;;;4.59;67.49;103583.72;5031168;28;20046;-57
2022/01/24 08:11:58;;;;;;;51.78;26.95;;;;;;;4.63;67.79;103590.81;5033098;28;20036;-58
2022/01/24 08:14:23;;;;;;;46.10;25.05;;;;;;;4.65;67.91;103583.94;5043415;28;20025;-56
2022/01/24 08:16:48;;;;;;;49.97;28.25;;;;;;;4.66;67.55;103592.63;5042215;28;20433;-56
2022/01/24 08:19:14;;;;;;;56.65;28.90;;;;;;;4.63;67.27;103593.41;5047087;28;20036;-61
2022/01/24 08:21:39;;;;;;;47.35;26.63;;;;;;;4.64;67.29;103591.72;5046595;28;20032;-57
2022/01/24 08:24:07;;;;;;;48.55;27.42;;;;;;;4.71;67.05;103592.81;5047014;28;20025;-58
2022/01/24 08:26:33;;;;;;;53.33;27.10;;;;;;;4.73;66.77;103591.16;5044149;28;20487;-56
2022/01/24 08:28:58;;;;;;;40.53;23.13;;;;;;;4.72;67.12;103590.25;5044137;28;20103;-59
2022/01/24 08:31:23;;;;;;;42.03;25.02;;;;;;;4.73;65.90;103592.00;5040232;28;20119;-57
2022/01/24 08:33:49;;;;;;;41.95;23.85;;;;;;;4.73;65.50;103594.63;5046297;28;20025;-57
2022/01/24 08:36:14;;;;;;;39.03;23.95;;;;;;;4.77;65.26;103591.31;5026994;28;20032;-57
2022/01/24 08:38:39;;;;;;;43.25;24.67;;;;;;;4.77;65.12;103591.31;5045982;28;20455;-56
2022/01/24 08:41:16;;;;;;;36.40;22.38;;;;;;;4.79;64.88;103587.00;5045096;28;20024;-55
2022/01/24 08:46:12;;;;;;;43.95;25.50;;;;;;;4.80;65.09;103593.13;5040294;28;20048;-57
2022/01/24 08:48:38;;;;;;;48.70;26.83;;;;;;;4.83;65.88;103590.63;5027323;28;20387;-57
2022/01/24 08:51:03;;;;;;;35.67;20.65;;;;;;;4.88;65.53;103596.88;5045728;28;20025;-56
2022/01/24 08:53:34;;;;;;;46.25;24.30;;;;;;;4.87;65.63;103591.59;5045524;28;20032;-58
2022/01/24 08:56:01;;;;;;;43.13;25.10;;;;;;;4.85;65.53;103595.91;5044504;28;20487;-57
2022/01/24 08:58:26;;;;;;;46.90;25.65;;;;;;;4.88;65.98;103593.41;5037269;28;20025;-56
2022/01/24 09:00:52;;;;;;;42.65;23.05;;;;;;;4.95;66.07;103586.66;5044489;28;20025;-58
2022/01/24 09:03:19;;;;;;;47.22;27.38;;;;;;;4.94;66.00;103591.00;5045785;28;20036;-55
2022/01/24 09:05:47;;;;;;;40.47;24.15;;;;;;;5.00;65.26;103588.56;5044245;28;20514;-56
2022/01/24 09:08:13;;;;;;;49.95;27.02;;;;;;;5.00;65.48;103593.81;5045584;28;20149;-57
2022/01/24 09:10:39;;;;;;;52.38;27.35;;;;;;;5.01;65.98;103593.00;5044805;28;20499;-56
2022/01/24 09:13:06;;;;;;;46.38;26.67;;;;;;;4.87;66.14;103587.28;5021052;28;20060;-56
2022/01/24 09:15:31;;;;;;;40.00;24.90;;;;;;;5.02;65.07;103597.38;5021128;28;20079;-54
2022/01/24 09:17:56;;;;;;;50.30;27.25;;;;;;;5.03;64.59;103590.44;5022420;28;20063;-55
2022/01/24 09:20:22;;;;;;;47.63;27.92;;;;;;;5.07;64.74;103592.31;5023201;28;20017;-54
2022/01/24 09:22:49;;;;;;;51.88;27.63;;;;;;;5.10;64.98;103587.19;5020168;28;20036;-58
2022/01/24 09:25:16;;;;;;;48.92;28.02;;;;;;;5.18;65.72;103595.28;5021341;28;20528;-56
2022/01/24 09:27:42;;;;;;;50.83;30.15;;;;;;;5.20;64.81;103584.88;5019831;28;20550;-56
2022/01/24 09:30:08;;;;;;;48.85;28.98;;;;;;;5.16;64.69;103590.00;5022501;28;20561;-55
2022/01/24 09:32:34;;;;;;;45.72;26.70;;;;;;;5.17;64.80;103585.63;5021177;28;20192;-58
2022/01/24 09:34:59;;;;;;;47.20;29.35;;;;;;;5.19;64.90;103597.06;5019901;28;20194;-58
2022/01/24 09:37:25;;;;;;;50.20;29.58;;;;;;;5.26;64.85;103600.75;5024881;28;20471;-57
2022/01/24 09:39:50;;;;;;;54.15;31.05;;;;;;;5.20;64.44;103601.44;5024252;28;20060;-58
2022/01/24 09:42:17;;;;;;;54.17;31.02;;;;;;;5.14;64.85;103602.13;5025396;28;20029;-57
2022/01/24 09:44:44;;;;;;;47.17;28.95;;;;;;;5.22;64.87;103606.72;5021647;28;20466;-58
2022/01/24 09:47:12;;;;;;;54.65;31.77;;;;;;;5.14;65.75;103603.84;5028253;28;20398;-52
2022/01/24 09:49:38;;;;;;;55.50;32.83;;;;;;;5.17;64.85;103601.31;4994414;28;20498;-56
2022/01/24 09:52:03;;;;;;;50.28;32.08;;;;;;;5.24;65.42;103605.06;5030725;28;20061;-53
2022/01/24 09:54:29;;;;;;;50.00;31.30;;;;;;;5.26;64.52;103603.34;5028640;28;20020;-57
2022/01/24 09:56:54;;;;;;;65.93;31.88;;;;;;;5.21;64.94;103611.03;5028609;28;20072;-57
2022/01/24 09:59:19;;;;;;;54.75;32.35;;;;;;;5.09;64.90;103605.41;5029701;28;20021;-58
2022/01/24 10:01:45;;;;;;;52.28;32.47;;;;;;;5.14;65.54;103603.84;5029478;28;20079;-57
2022/01/24 10:04:16;;;;;;;48.10;30.02;;;;;;;5.16;65.36;103610.00;5030114;28;20036;-58
2022/01/24 10:07:13;;;;;;;53.05;31.88;;;;;;;5.25;64.97;103607.72;5030362;28;20883;-58
2022/01/24 10:09:41;;;;;;;54.72;31.05;;;;;;;5.28;64.79;103612.16;5029982;28;20522;-57
2022/01/24 10:17:33;;;;;;;52.78;31.30;;;;;;;5.35;64.82;103610.59;5028469;28;20691;-59
2022/01/24 10:20:20;;;;;;;54.25;31.75;;;;;;;5.36;64.31;103612.41;5029775;28;20116;-55
2022/01/24 10:23:04;;;;;;;55.58;32.25;;;;;;;5.34;65.24;103612.34;5023689;28;20107;-59
2022/01/24 10:25:30;;;;;;;53.92;32.70;;;;;;;5.35;65.63;103613.22;5028205;28;20033;-56
2022/01/24 10:28:03;;;;;;;55.45;33.72;;;;;;;5.37;65.11;103612.47;5030074;28;20048;-56
2022/01/24 10:30:29;;;;;;;48.80;30.15;;;;;;;5.37;65.33;103611.56;5023502;28;20044;-56
2022/01/24 10:32:56;;;;;;;57.58;32.22;;;;;;;5.41;65.47;103610.81;5024083;28;20115;-57
2022/01/24 10:35:27;;;;;;;50.30;28.52;;;;;;;5.33;65.33;103610.59;5024487;28;20029;-57
2022/01/24 10:43:41;;;;;;;55.30;32.33;;;;;;;5.39;64.85;103609.91;5037556;28;20039;-57
2022/01/24 10:46:07;;;;;;;54.65;32.75;;;;;;;5.42;64.91;103604.78;5037189;28;20029;-57
2022/01/24 10:48:35;;;;;;;50.42;29.75;;;;;;;5.47;64.14;103603.19;5024882;28;20025;-57
2022/01/24 10:51:19;;;;;;;54.10;30.88;;;;;;;5.50;64.17;103598.03;5028789;28;20052;-59
2022/01/24 10:53:54;;;;;;;60.28;31.05;;;;;;;5.51;63.29;103599.81;5014057;28;20021;-58
2022/01/24 10:56:35;;;;;;;48.25;28.58;;;;;;;5.54;63.52;103606.91;5027911;28;20402;-57
2022/01/24 10:59:03;;;;;;;48.80;27.92;;;;;;;5.54;63.75;103588.59;5024742;28;20025;-58
2022/01/24 11:01:29;;;;;;;50.20;29.00;;;;;;;5.59;64.24;103597.44;5021603;28;20025;-58
2022/01/24 11:04:02;;;;;;;49.75;28.13;;;;;;;5.60;64.39;103593.13;5030177;28;20029;-57
2022/01/24 11:06:30;;;;;;;53.13;29.52;;;;;;;5.62;64.34;103592.31;5024498;28;20033;-58
2022/01/24 11:09:30;;;;;;;39.58;24.25;;;;;;;5.72;62.82;103585.63;5022359;28;20407;-56
2022/01/24 11:12:10;;;;;;;49.78;28.70;;;;;;;5.66;62.50;103586.34;5017847;28;20063;-54
2022/01/24 11:14:36;;;;;;;;;;;;;;;5.67;62.85;103582.00;5020625;28;20040;-55
2022/01/24 11:17:03;;;;;;;45.67;27.38;;;;;;;5.63;63.82;103581.00;5020707;28;21064;-55
2022/01/24 11:19:34;;;;;;;44.17;26.23;;;;;;;5.59;64.66;103580.84;5021410;28;20074;-58
2022/01/24 11:22:04;;;;;;;45.58;27.50;;;;;;;5.58;63.64;103574.75;5018984;28;20098;-56
2022/01/24 11:24:41;;;;;;;43.85;26.17;;;;;;;5.55;63.92;103570.31;5022772;28;20497;-58
2022/01/24 11:27:07;;;;;;;43.35;24.73;;;;;;;5.63;64.18;103574.91;5013120;28;20025;-53
2022/01/24 11:29:33;;;;;;;45.72;26.20;;;;;;;5.66;64.67;103567.16;5020190;28;20064;-56
2022/01/24 11:32:26;;;;;;;48.05;27.75;;;;;;;5.62;64.79;103567.88;5001706;28;20612;-58
2022/01/24 11:34:53;;;;;;;43.88;26.20;;;;;;;5.63;64.07;103567.06;4991120;28;20034;-56
2022/01/24 11:37:41;;;;;;;49.75;25.63;;;;;;;5.53;65.24;103563.25;5018004;28;20028;-57
2022/01/24 11:40:18;;;;;;;45.35;26.08;;;;;;;5.52;64.79;103559.75;5065128;28;20029;-59
2022/01/24 11:42:46;;;;;;;50.17;27.67;;;;;;;5.65;64.08;103554.88;5062457;28;20028;-57
2022/01/24 11:45:15;;;;;;;44.53;26.02;;;;;;;5.64;65.01;103556.63;5041754;28;20034;-55
2022/01/24 11:47:42;;;;;;;45.73;27.60;;;;;;;5.61;64.03;103559.16;5038702;28;20043;-56
2022/01/24 11:50:36;;;;;;;44.53;25.50;;;;;;;5.65;64.53;103557.50;5036459;28;20279;-56
2022/01/24 11:53:18;;;;;;;42.05;25.55;;;;;;;5.62;63.65;103560.91;5042969;28;20076;-58
2022/01/24 11:55:44;;;;;;;46.17;26.77;;;;;;;5.59;63.48;103557.31;5043894;28;20047;-55
2022/01/24 11:58:09;;;;;;;40.40;25.17;;;;;;;5.61;63.93;103563.50;5036511;28;20014;-58
2022/01/24 12:00:40;;;;;;;42.47;25.88;;;;;;;5.56;64.66;103556.41;5050910;28;20379;-56
2022/01/24 12:03:28;;;;;;;44.63;26.00;;;;;;;5.49;65.47;103559.66;5050249;28;20028;-56
2022/01/24 12:05:56;;;;;;;44.35;25.77;;;;;;;5.63;64.59;103557.47;5030390;28;20041;-56
2022/01/24 12:08:27;;;;;;;41.17;25.65;;;;;;;5.58;64.76;103553.81;5035130;28;20044;-58
2022/01/24 12:10:55;;;;;;;43.70;24.85;;;;;;;5.57;64.66;103554.69;5035118;28;20033;-56
2022/01/24 12:13:31;;;;;;;43.28;24.48;;;;;;;5.49;64.36;103553.53;5036634;28;20001;-56
2022/01/24 12:15:57;;;;;;;49.03;26.27;;;;;;;5.36;64.15;103554.88;5035682;28;20686;-54
2022/01/24 12:18:26;;;;;;;39.92;24.42;;;;;;;5.45;64.36;103552.56;5041215;28;20032;-57
2022/01/24 12:21:15;;;;;;;42.92;25.30;;;;;;;5.45;63.85;103552.56;5052216;28;20095;-55
2022/01/24 12:23:41;;;;;;;40.70;23.83;;;;;;;5.51;63.78;103552.72;5036899;28;20017;-57
2022/01/24 12:26:14;;;;;;;41.35;24.10;;;;;;;5.49;63.75;103546.59;5045291;28;20536;-56
2022/01/24 12:28:42;;;;;;;42.30;24.05;;;;;;;5.46;63.87;103551.72;5045814;28;20444;-55
2022/01/24 12:31:08;;;;;;;46.38;25.13;;;;;;;5.54;63.35;103546.72;5044599;28;20033;-58
2022/01/24 12:33:42;;;;;;;43.15;25.52;;;;;;;5.59;63.62;103549.47;5044688;28;20064;-56
2022/01/24 12:36:13;;;;;;;41.72;25.58;;;;;;;5.54;63.71;103544.97;5045064;28;20494;-57
2022/01/24 12:38:52;;;;;;;40.10;24.05;;;;;;;5.44;64.01;103543.81;5040503;28;20025;-55
2022/01/24 12:41:34;;;;;;;40.65;22.98;;;;;;;5.65;63.07;103539.19;5043731;28;20036;-57
2022/01/24 12:46:29;;;;;;;37.65;23.70;;;;;;;5.48;63.18;103539.56;5044240;28;20044;-56
2022/01/24 12:48:56;;;;;;;41.40;25.08;;;;;;;5.51;63.34;103542.28;5045864;28;20439;-55
2022/01/24 12:51:22;;;;;;;39.97;24.58;;;;;;;5.53;63.47;103543.22;5044954;28;20024;-57
2022/01/24 12:53:49;;;;;;;42.20;25.23;;;;;;;5.37;64.29;103546.19;5047179;28;20025;-58
2022/01/24 12:56:16;;;;;;;41.05;24.27;;;;;;;5.43;63.31;103535.94;5037920;28;20506;-55
2022/01/24 12:58:44;;;;;;;40.53;24.08;;;;;;;5.43;63.66;103531.59;5041752;28;20108;-55
2022/01/24 13:01:23;;;;;;;39.47;24.33;;;;;;;5.60;62.71;103533.81;5039135;28;20029;-57
2022/01/24 13:03:49;;;;;;;41.75;24.92;;;;;;;5.56;62.98;103535.47;5026136;28;20087;-56
2022/01/24 13:06:16;;;;;;;39.08;23.98;;;;;;;5.44;63.47;103524.63;5030665;28;20032;-56